NRAXV ELLX-EBBR
Flight info
| Callsign | NRAXV |
|---|---|
| Flight time | 0h 30m |
| Altitude | 16000 |
| Route | LNO |
| Aircraft | C25C/M-SDE2E3FGHRWXY/LB1 |
Departure
| Time | 2026-05-05 17:59 |
|---|---|
| Airport | Luxembourg-Findel International Airport (ELLX) |
Arrival
| Time | 2026-05-05 18:30 |
|---|---|
| Airport | Brussels Airport (EBBR) |
| Time | Latitude | Longitude | Altitude | Speed | Heading |
|---|---|---|---|---|---|
| 2026-05-05 17:43 | 49.63021 | 6.21051 | 1189 ft | 0 kts | 63° |
| 2026-05-05 17:55 | 49.63021 | 6.21105 | 1189 ft | 10 kts | 138° |
| 2026-05-05 17:56 | 49.62943 | 6.21155 | 1190 ft | 14 kts | 184° |
| 2026-05-05 17:56 | 49.62882 | 6.21015 | 1190 ft | 21 kts | 244° |
| 2026-05-05 17:56 | 49.62805 | 6.20775 | 1190 ft | 28 kts | 236° |
| 2026-05-05 17:56 | 49.62665 | 6.20584 | 1191 ft | 27 kts | 224° |
| 2026-05-05 17:57 | 49.62539 | 6.20366 | 1192 ft | 27 kts | 226° |
| 2026-05-05 17:57 | 49.62437 | 6.20121 | 1192 ft | 29 kts | 242° |
| 2026-05-05 17:57 | 49.62337 | 6.19853 | 1191 ft | 28 kts | 240° |
| 2026-05-05 17:57 | 49.62237 | 6.19586 | 1189 ft | 29 kts | 240° |
| 2026-05-05 17:58 | 49.62137 | 6.19314 | 1188 ft | 29 kts | 240° |
| 2026-05-05 17:58 | 49.62037 | 6.19046 | 1186 ft | 28 kts | 240° |
| 2026-05-05 17:58 | 49.61933 | 6.18793 | 1185 ft | 27 kts | 219° |
| 2026-05-05 17:58 | 49.61813 | 6.18721 | 1178 ft | 19 kts | 151° |
| 2026-05-05 17:59 | 49.61800 | 6.18877 | 1175 ft | 1 kts | 60° |
| 2026-05-05 17:59 | 49.61857 | 6.19034 | 1178 ft | 61 kts | 60° |
| 2026-05-05 17:59 | 49.62251 | 6.20122 | 1359 ft | 156 kts | 62° |
| 2026-05-05 17:59 | 49.62823 | 6.21745 | 2351 ft | 190 kts | 62° |
| 2026-05-05 18:00 | 49.63489 | 6.23558 | 3816 ft | 205 kts | 61° |
| 2026-05-05 18:00 | 49.64309 | 6.25729 | 4029 ft | 271 kts | 59° |
| 2026-05-05 18:00 | 49.65380 | 6.28372 | 4568 ft | 293 kts | 60° |
| 2026-05-05 18:00 | 49.66392 | 6.31083 | 5431 ft | 287 kts | 61° |
| 2026-05-05 18:01 | 49.67393 | 6.33775 | 5838 ft | 291 kts | 61° |
| 2026-05-05 18:01 | 49.68400 | 6.36500 | 6232 ft | 294 kts | 61° |
| 2026-05-05 18:01 | 49.69446 | 6.39215 | 6608 ft | 296 kts | 57° |
| 2026-05-05 18:01 | 49.71074 | 6.41170 | 7133 ft | 302 kts | 15° |
| 2026-05-05 18:02 | 49.73086 | 6.41677 | 7496 ft | 292 kts | 358° |
| 2026-05-05 18:02 | 49.74990 | 6.40708 | 7997 ft | 289 kts | 326° |
| 2026-05-05 18:02 | 49.76537 | 6.38820 | 9411 ft | 284 kts | 307° |
| 2026-05-05 18:02 | 49.77484 | 6.36141 | 10481 ft | 286 kts | 294° |
| 2026-05-05 18:03 | 49.78494 | 6.33447 | 11611 ft | 292 kts | 299° |
| 2026-05-05 18:03 | 49.79510 | 6.30728 | 12699 ft | 298 kts | 296° |
| 2026-05-05 18:03 | 49.80549 | 6.27932 | 13859 ft | 302 kts | 298° |
| 2026-05-05 18:03 | 49.81620 | 6.25100 | 14812 ft | 308 kts | 297° |
| 2026-05-05 18:04 | 49.82699 | 6.22180 | 15699 ft | 318 kts | 298° |
| 2026-05-05 18:04 | 49.83861 | 6.19068 | 15807 ft | 351 kts | 298° |
| 2026-05-05 18:04 | 49.85149 | 6.15665 | 15820 ft | 380 kts | 301° |
| 2026-05-05 18:04 | 49.87078 | 6.12762 | 15813 ft | 389 kts | 325° |
| 2026-05-05 18:05 | 49.89450 | 6.10990 | 15815 ft | 368 kts | 337° |
| 2026-05-05 18:05 | 49.91818 | 6.09645 | 15817 ft | 361 kts | 339° |
| 2026-05-05 18:05 | 49.94195 | 6.08404 | 15822 ft | 361 kts | 339° |
| 2026-05-05 18:05 | 49.96553 | 6.07054 | 15819 ft | 361 kts | 338° |
| 2026-05-05 18:06 | 49.98898 | 6.05678 | 15819 ft | 361 kts | 338° |
| 2026-05-05 18:06 | 50.00463 | 6.04775 | 15821 ft | 361 kts | 338° |
| 2026-05-05 18:06 | 50.03619 | 6.02975 | 15820 ft | 361 kts | 338° |
| 2026-05-05 18:06 | 50.05973 | 6.01623 | 15832 ft | 361 kts | 338° |
| 2026-05-05 18:07 | 50.08327 | 6.00266 | 15832 ft | 361 kts | 338° |
| 2026-05-05 18:07 | 50.10678 | 5.98914 | 15829 ft | 360 kts | 338° |
| 2026-05-05 18:07 | 50.13032 | 5.97558 | 15833 ft | 360 kts | 338° |
| 2026-05-05 18:07 | 50.15380 | 5.96209 | 15829 ft | 360 kts | 338° |
| 2026-05-05 18:08 | 50.17726 | 5.94850 | 15821 ft | 360 kts | 339° |
| 2026-05-05 18:08 | 50.20077 | 5.93494 | 15826 ft | 360 kts | 338° |
| 2026-05-05 18:08 | 50.22427 | 5.92129 | 15832 ft | 360 kts | 339° |
| 2026-05-05 18:08 | 50.24770 | 5.90778 | 15832 ft | 360 kts | 338° |
| 2026-05-05 18:09 | 50.27119 | 5.89411 | 15831 ft | 360 kts | 339° |
| 2026-05-05 18:09 | 50.29476 | 5.88049 | 15835 ft | 360 kts | 339° |
| 2026-05-05 18:09 | 50.31821 | 5.86682 | 15836 ft | 360 kts | 339° |
| 2026-05-05 18:09 | 50.34173 | 5.85319 | 15837 ft | 360 kts | 339° |
| 2026-05-05 18:10 | 50.36522 | 5.83946 | 15842 ft | 361 kts | 339° |
| 2026-05-05 18:10 | 50.38874 | 5.82579 | 15836 ft | 361 kts | 339° |
| 2026-05-05 18:10 | 50.41231 | 5.81204 | 15837 ft | 361 kts | 339° |
| 2026-05-05 18:10 | 50.43590 | 5.79826 | 15837 ft | 361 kts | 339° |
| 2026-05-05 18:11 | 50.45946 | 5.78447 | 15838 ft | 361 kts | 339° |
| 2026-05-05 18:11 | 50.48304 | 5.77070 | 15840 ft | 361 kts | 339° |
| 2026-05-05 18:11 | 50.50658 | 5.75687 | 15840 ft | 361 kts | 339° |
| 2026-05-05 18:11 | 50.53017 | 5.74308 | 15841 ft | 361 kts | 338° |
| 2026-05-05 18:12 | 50.55369 | 5.72921 | 15844 ft | 362 kts | 339° |
| 2026-05-05 18:12 | 50.57705 | 5.71461 | 15836 ft | 361 kts | 332° |
| 2026-05-05 18:12 | 50.59618 | 5.68968 | 15833 ft | 358 kts | 310° |
| 2026-05-05 18:12 | 50.61240 | 5.66006 | 15832 ft | 358 kts | 308° |
| 2026-05-05 18:13 | 50.62774 | 5.62914 | 15836 ft | 357 kts | 305° |
| 2026-05-05 18:13 | 50.64273 | 5.59812 | 15847 ft | 357 kts | 307° |
| 2026-05-05 18:13 | 50.65826 | 5.56797 | 15858 ft | 358 kts | 307° |
| 2026-05-05 18:13 | 50.67390 | 5.53758 | 15859 ft | 357 kts | 307° |
| 2026-05-05 18:14 | 50.68948 | 5.50692 | 15860 ft | 357 kts | 307° |
| 2026-05-05 18:14 | 50.70489 | 5.47617 | 15865 ft | 357 kts | 307° |
| 2026-05-05 18:14 | 50.72042 | 5.44558 | 15860 ft | 357 kts | 307° |
| 2026-05-05 18:14 | 50.73586 | 5.41494 | 15863 ft | 357 kts | 307° |
| 2026-05-05 18:15 | 50.75143 | 5.38423 | 15858 ft | 357 kts | 307° |
| 2026-05-05 18:15 | 50.76684 | 5.35349 | 15861 ft | 357 kts | 307° |
| 2026-05-05 18:15 | 50.78240 | 5.32269 | 15865 ft | 365 kts | 307° |
| 2026-05-05 18:15 | 50.79862 | 5.29026 | 15863 ft | 381 kts | 307° |
| 2026-05-05 18:16 | 50.81519 | 5.25749 | 15867 ft | 382 kts | 308° |
| 2026-05-05 18:16 | 50.83172 | 5.22442 | 15870 ft | 383 kts | 307° |
| 2026-05-05 18:16 | 50.84832 | 5.19137 | 15873 ft | 384 kts | 307° |
| 2026-05-05 18:16 | 50.86454 | 5.15851 | 15295 ft | 377 kts | 306° |
| 2026-05-05 18:17 | 50.87564 | 5.12068 | 14362 ft | 382 kts | 284° |
| 2026-05-05 18:17 | 50.87970 | 5.07968 | 13770 ft | 369 kts | 277° |
| 2026-05-05 18:17 | 50.88167 | 5.03996 | 12829 ft | 359 kts | 274° |
| 2026-05-05 18:17 | 50.88254 | 5.00062 | 11849 ft | 354 kts | 273° |
| 2026-05-05 18:18 | 50.88416 | 4.96216 | 10899 ft | 349 kts | 275° |
| 2026-05-05 18:18 | 50.88609 | 4.92419 | 10056 ft | 342 kts | 275° |
| 2026-05-05 18:18 | 50.88779 | 4.88704 | 9178 ft | 336 kts | 275° |
| 2026-05-05 18:18 | 50.88930 | 4.85021 | 8218 ft | 334 kts | 274° |
| 2026-05-05 18:19 | 50.89079 | 4.81459 | 7879 ft | 317 kts | 275° |
| 2026-05-05 18:19 | 50.89230 | 4.78050 | 7868 ft | 296 kts | 275° |
| 2026-05-05 18:19 | 50.89361 | 4.74843 | 7524 ft | 291 kts | 275° |
| 2026-05-05 18:19 | 50.89499 | 4.71695 | 7170 ft | 289 kts | 275° |
| 2026-05-05 18:20 | 50.89631 | 4.68522 | 6768 ft | 288 kts | 276° |
| 2026-05-05 18:20 | 50.89762 | 4.65328 | 6437 ft | 285 kts | 275° |
| 2026-05-05 18:20 | 50.89889 | 4.62206 | 6024 ft | 283 kts | 276° |
| 2026-05-05 18:20 | 50.90017 | 4.59188 | 5901 ft | 272 kts | 275° |
| 2026-05-05 18:21 | 50.90133 | 4.56254 | 5883 ft | 261 kts | 275° |
| 2026-05-05 18:21 | 50.90242 | 4.53448 | 5873 ft | 252 kts | 273° |
| 2026-05-05 18:21 | 50.90224 | 4.50723 | 5875 ft | 245 kts | 273° |
| 2026-05-05 18:21 | 50.90315 | 4.48043 | 5876 ft | 239 kts | 275° |
| 2026-05-05 18:22 | 50.90360 | 4.45420 | 5874 ft | 236 kts | 274° |
| 2026-05-05 18:22 | 50.90382 | 4.42836 | 5872 ft | 233 kts | 267° |
| 2026-05-05 18:22 | 50.89684 | 4.40569 | 5826 ft | 237 kts | 223° |
| 2026-05-05 18:22 | 50.88248 | 4.39287 | 5717 ft | 239 kts | 201° |
| 2026-05-05 18:23 | 50.86707 | 4.38222 | 5488 ft | 245 kts | 204° |
| 2026-05-05 18:23 | 50.85149 | 4.37016 | 5174 ft | 254 kts | 207° |
| 2026-05-05 18:23 | 50.83587 | 4.35643 | 4846 ft | 260 kts | 208° |
| 2026-05-05 18:23 | 50.81982 | 4.34260 | 4588 ft | 262 kts | 208° |
| 2026-05-05 18:24 | 50.80418 | 4.32911 | 4020 ft | 255 kts | 207° |
| 2026-05-05 18:24 | 50.78912 | 4.31647 | 3884 ft | 235 kts | 207° |
| 2026-05-05 18:24 | 50.77482 | 4.30466 | 3632 ft | 226 kts | 201° |
| 2026-05-05 18:24 | 50.75988 | 4.30476 | 3409 ft | 213 kts | 154° |
| 2026-05-05 18:25 | 50.74901 | 4.31914 | 3215 ft | 200 kts | 123° |
| 2026-05-05 18:25 | 50.74488 | 4.33169 | 3056 ft | 194 kts | 102° |
| 2026-05-05 18:25 | 50.74527 | 4.35868 | 2769 ft | 182 kts | 67° |
| 2026-05-05 18:25 | 50.75206 | 4.37516 | 2525 ft | 178 kts | 46° |
| 2026-05-05 18:26 | 50.76067 | 4.38940 | 2315 ft | 177 kts | 46° |
| 2026-05-05 18:26 | 50.76881 | 4.40355 | 2126 ft | 176 kts | 46° |
| 2026-05-05 18:26 | 50.77682 | 4.41779 | 2066 ft | 170 kts | 47° |
| 2026-05-05 18:26 | 50.78447 | 4.43160 | 2035 ft | 165 kts | 47° |
| 2026-05-05 18:27 | 50.79196 | 4.44495 | 2024 ft | 161 kts | 47° |
| 2026-05-05 18:27 | 50.80084 | 4.45555 | 1993 ft | 161 kts | 19° |
| 2026-05-05 18:27 | 50.81196 | 4.46042 | 1793 ft | 170 kts | 18° |
| 2026-05-05 18:27 | 50.82291 | 4.46541 | 1568 ft | 160 kts | 15° |
| 2026-05-05 18:28 | 50.84188 | 4.47307 | 1173 ft | 128 kts | 17° |
| 2026-05-05 18:28 | 50.85006 | 4.47627 | 999 ft | 111 kts | 14° |
| 2026-05-05 18:28 | 50.85699 | 4.47918 | 850 ft | 96 kts | 18° |
| 2026-05-05 18:29 | 50.86320 | 4.48171 | 680 ft | 89 kts | 18° |
| 2026-05-05 18:29 | 50.86911 | 4.48402 | 569 ft | 88 kts | 11° |
| 2026-05-05 18:29 | 50.87515 | 4.48632 | 411 ft | 91 kts | 8° |
| 2026-05-05 18:29 | 50.88127 | 4.48920 | 306 ft | 93 kts | 20° |
| 2026-05-05 18:30 | 50.88753 | 4.49171 | 187 ft | 93 kts | 15° |
| 2026-05-05 18:30 | 50.89337 | 4.49414 | 151 ft | 77 kts | 13° |
| 2026-05-05 18:30 | 50.89775 | 4.49586 | 144 ft | 40 kts | 14° |
| 2026-05-05 18:30 | 50.90016 | 4.49684 | 137 ft | 31 kts | 15° |
| 2026-05-05 18:31 | 50.90220 | 4.49705 | 136 ft | 29 kts | 353° |
| 2026-05-05 18:31 | 50.90355 | 4.49651 | 136 ft | 0 kts | 345° |
| 2026-05-05 18:32 | 50.90356 | 4.49650 | 136 ft | 0 kts | 345° |
| 2026-05-05 18:32 | 50.90389 | 4.49630 | 136 ft | 12 kts | 318° |
| 2026-05-05 18:33 | 50.90408 | 4.49453 | 137 ft | 20 kts | 300° |
| 2026-05-05 18:33 | 50.90454 | 4.49277 | 137 ft | 18 kts | 338° |
| 2026-05-05 18:33 | 50.90567 | 4.49196 | 137 ft | 18 kts | 335° |
| 2026-05-05 18:33 | 50.90685 | 4.49112 | 136 ft | 16 kts | 334° |
| 2026-05-05 18:34 | 50.90695 | 4.48968 | 135 ft | 16 kts | 245° |
| 2026-05-05 18:34 | 50.90662 | 4.48853 | 135 ft | 18 kts | 246° |
| 2026-05-05 18:34 | 50.90605 | 4.48655 | 135 ft | 21 kts | 245° |
| 2026-05-05 18:34 | 50.90540 | 4.48430 | 135 ft | 24 kts | 246° |
| 2026-05-05 18:35 | 50.90468 | 4.48181 | 136 ft | 25 kts | 245° |
| 2026-05-05 18:35 | 50.90398 | 4.47933 | 136 ft | 25 kts | 245° |
| 2026-05-05 18:35 | 50.90325 | 4.47686 | 135 ft | 25 kts | 245° |
| 2026-05-05 18:35 | 50.90254 | 4.47452 | 136 ft | 17 kts | 219° |
| 2026-05-05 18:36 | 50.90150 | 4.47490 | 137 ft | 16 kts | 154° |
| 2026-05-05 18:36 | 50.90036 | 4.47572 | 137 ft | 21 kts | 155° |
| 2026-05-05 18:36 | 50.89935 | 4.47519 | 137 ft | 18 kts | 241° |
| 2026-05-05 18:36 | 50.89881 | 4.47340 | 137 ft | 19 kts | 246° |
| 2026-05-05 18:37 | 50.89828 | 4.47156 | 137 ft | 13 kts | 246° |
| 2026-05-05 18:37 | 50.89872 | 4.47092 | 137 ft | 9 kts | 338° |
| 2026-05-05 18:37 | 50.89899 | 4.47074 | 137 ft | 0 kts | 336° |